sensor_id;sensor_type;location;lat;lon;timestamp;P1;durP1;ratioP1;P2;durP2;ratioP2
45618;SDS011;31343;47.520;19.144;2024-01-11T00:00:16;8.70;;;4.90;;
45618;SDS011;31343;47.520;19.144;2024-01-11T00:02:42;15.80;;;7.25;;
45618;SDS011;31343;47.520;19.144;2024-01-11T00:05:07;9.75;;;8.02;;
45618;SDS011;31343;47.520;19.144;2024-01-11T00:07:34;10.85;;;4.82;;
45618;SDS011;31343;47.520;19.144;2024-01-11T00:10:00;7.50;;;4.55;;
45618;SDS011;31343;47.520;19.144;2024-01-11T00:12:27;12.73;;;5.38;;
45618;SDS011;31343;47.520;19.144;2024-01-11T00:14:52;10.77;;;5.82;;
45618;SDS011;31343;47.520;19.144;2024-01-11T00:17:18;8.30;;;7.10;;
45618;SDS011;31343;47.520;19.144;2024-01-11T00:19:44;7.07;;;4.88;;
45618;SDS011;31343;47.520;19.144;2024-01-11T00:22:09;6.47;;;4.97;;
45618;SDS011;31343;47.520;19.144;2024-01-11T00:24:35;9.43;;;5.13;;
45618;SDS011;31343;47.520;19.144;2024-01-11T00:27:01;10.57;;;6.45;;
45618;SDS011;31343;47.520;19.144;2024-01-11T00:29:26;7.55;;;6.95;;
45618;SDS011;31343;47.520;19.144;2024-01-11T00:31:53;5.72;;;4.60;;
45618;SDS011;31343;47.520;19.144;2024-01-11T00:34:19;7.53;;;6.82;;
45618;SDS011;31343;47.520;19.144;2024-01-11T00:36:46;11.00;;;8.18;;
45618;SDS011;31343;47.520;19.144;2024-01-11T00:39:12;6.43;;;5.15;;
45618;SDS011;31343;47.520;19.144;2024-01-11T00:41:38;11.85;;;4.97;;
45618;SDS011;31343;47.520;19.144;2024-01-11T00:44:03;6.88;;;5.82;;
45618;SDS011;31343;47.520;19.144;2024-01-11T00:46:29;13.55;;;8.15;;
45618;SDS011;31343;47.520;19.144;2024-01-11T00:48:54;7.97;;;4.45;;
45618;SDS011;31343;47.520;19.144;2024-01-11T00:51:20;9.55;;;6.20;;
45618;SDS011;31343;47.520;19.144;2024-01-11T00:53:46;5.50;;;4.95;;
45618;SDS011;31343;47.520;19.144;2024-01-11T00:56:15;8.93;;;7.40;;
45618;SDS011;31343;47.520;19.144;2024-01-11T00:58:44;11.98;;;5.72;;
45618;SDS011;31343;47.520;19.144;2024-01-11T01:01:12;16.55;;;7.97;;
45618;SDS011;31343;47.520;19.144;2024-01-11T01:03:38;4.55;;;3.88;;
45618;SDS011;31343;47.520;19.144;2024-01-11T01:06:04;5.53;;;4.07;;
45618;SDS011;31343;47.520;19.144;2024-01-11T01:08:30;15.73;;;5.82;;
45618;SDS011;31343;47.520;19.144;2024-01-11T01:10:56;19.00;;;5.13;;
45618;SDS011;31343;47.520;19.144;2024-01-11T01:13:21;6.88;;;5.25;;
45618;SDS011;31343;47.520;19.144;2024-01-11T01:15:47;6.13;;;5.55;;
45618;SDS011;31343;47.520;19.144;2024-01-11T01:18:13;8.15;;;5.93;;
45618;SDS011;31343;47.520;19.144;2024-01-11T01:20:39;8.13;;;6.80;;
45618;SDS011;31343;47.520;19.144;2024-01-11T01:23:05;12.95;;;7.53;;
45618;SDS011;31343;47.520;19.144;2024-01-11T01:25:30;6.20;;;5.35;;
45618;SDS011;31343;47.520;19.144;2024-01-11T01:27:57;16.55;;;7.70;;
45618;SDS011;31343;47.520;19.144;2024-01-11T01:30:24;6.15;;;5.53;;
45618;SDS011;31343;47.520;19.144;2024-01-11T01:32:50;6.10;;;4.97;;
45618;SDS011;31343;47.520;19.144;2024-01-11T01:35:15;8.38;;;5.32;;
45618;SDS011;31343;47.520;19.144;2024-01-11T01:37:41;8.93;;;7.35;;
45618;SDS011;31343;47.520;19.144;2024-01-11T01:40:07;5.38;;;3.50;;
45618;SDS011;31343;47.520;19.144;2024-01-11T01:42:34;11.25;;;6.25;;
45618;SDS011;31343;47.520;19.144;2024-01-11T01:44:59;7.00;;;4.43;;
45618;SDS011;31343;47.520;19.144;2024-01-11T01:47:25;13.40;;;5.95;;
45618;SDS011;31343;47.520;19.144;2024-01-11T01:49:52;6.93;;;3.95;;
45618;SDS011;31343;47.520;19.144;2024-01-11T01:52:19;8.88;;;5.60;;
45618;SDS011;31343;47.520;19.144;2024-01-11T01:54:46;5.13;;;4.40;;
45618;SDS011;31343;47.520;19.144;2024-01-11T01:57:13;8.00;;;4.00;;
45618;SDS011;31343;47.520;19.144;2024-01-11T01:59:40;7.00;;;4.10;;
45618;SDS011;31343;47.520;19.144;2024-01-11T02:02:08;5.43;;;4.95;;
45618;SDS011;31343;47.520;19.144;2024-01-11T02:04:35;7.15;;;5.68;;
45618;SDS011;31343;47.520;19.144;2024-01-11T02:07:01;4.82;;;4.47;;
45618;SDS011;31343;47.520;19.144;2024-01-11T02:09:28;4.60;;;3.95;;
45618;SDS011;31343;47.520;19.144;2024-01-11T02:11:55;9.27;;;7.57;;
45618;SDS011;31343;47.520;19.144;2024-01-11T02:14:21;9.73;;;7.03;;
45618;SDS011;31343;47.520;19.144;2024-01-11T02:16:46;6.25;;;3.72;;
45618;SDS011;31343;47.520;19.144;2024-01-11T02:19:15;7.78;;;7.15;;
45618;SDS011;31343;47.520;19.144;2024-01-11T02:21:44;12.07;;;5.75;;
45618;SDS011;31343;47.520;19.144;2024-01-11T02:24:13;11.50;;;7.15;;
45618;SDS011;31343;47.520;19.144;2024-01-11T02:29:43;3.47;;;2.67;;
45618;SDS011;31343;47.520;19.144;2024-01-11T02:32:09;5.35;;;4.07;;
45618;SDS011;31343;47.520;19.144;2024-01-11T02:34:34;7.65;;;3.13;;
45618;SDS011;31343;47.520;19.144;2024-01-11T02:37:00;5.30;;;4.80;;
45618;SDS011;31343;47.520;19.144;2024-01-11T02:39:26;9.57;;;6.95;;
45618;SDS011;31343;47.520;19.144;2024-01-11T02:41:56;5.85;;;5.25;;
45618;SDS011;31343;47.520;19.144;2024-01-11T02:44:25;6.90;;;6.30;;
45618;SDS011;31343;47.520;19.144;2024-01-11T02:46:51;6.85;;;3.92;;
45618;SDS011;31343;47.520;19.144;2024-01-11T02:49:16;7.10;;;5.07;;
45618;SDS011;31343;47.520;19.144;2024-01-11T02:51:42;9.98;;;3.58;;
45618;SDS011;31343;47.520;19.144;2024-01-11T02:54:08;10.90;;;6.82;;
45618;SDS011;31343;47.520;19.144;2024-01-11T02:56:33;3.20;;;2.88;;
45618;SDS011;31343;47.520;19.144;2024-01-11T02:58:59;3.28;;;2.90;;
45618;SDS011;31343;47.520;19.144;2024-01-11T03:01:26;3.80;;;3.47;;
45618;SDS011;31343;47.520;19.144;2024-01-11T03:03:51;19.13;;;6.90;;
45618;SDS011;31343;47.520;19.144;2024-01-11T03:06:18;5.07;;;4.70;;
45618;SDS011;31343;47.520;19.144;2024-01-11T03:08:47;4.93;;;2.97;;
45618;SDS011;31343;47.520;19.144;2024-01-11T03:11:13;5.72;;;5.18;;
45618;SDS011;31343;47.520;19.144;2024-01-11T03:13:39;8.50;;;7.68;;
45618;SDS011;31343;47.520;19.144;2024-01-11T03:16:05;5.15;;;4.70;;
45618;SDS011;31343;47.520;19.144;2024-01-11T03:18:30;3.60;;;3.15;;
45618;SDS011;31343;47.520;19.144;2024-01-11T03:20:56;13.30;;;4.80;;
45618;SDS011;31343;47.520;19.144;2024-01-11T03:23:22;10.75;;;4.75;;
45618;SDS011;31343;47.520;19.144;2024-01-11T03:25:48;6.40;;;5.80;;
45618;SDS011;31343;47.520;19.144;2024-01-11T03:28:13;4.30;;;4.00;;
45618;SDS011;31343;47.520;19.144;2024-01-11T03:30:40;5.40;;;2.97;;
45618;SDS011;31343;47.520;19.144;2024-01-11T03:33:05;3.53;;;3.25;;
45618;SDS011;31343;47.520;19.144;2024-01-11T03:35:31;15.43;;;3.53;;
45618;SDS011;31343;47.520;19.144;2024-01-11T03:37:56;6.05;;;4.50;;
45618;SDS011;31343;47.520;19.144;2024-01-11T03:40:22;6.63;;;4.72;;
45618;SDS011;31343;47.520;19.144;2024-01-11T03:42:48;8.77;;;3.47;;
45618;SDS011;31343;47.520;19.144;2024-01-11T03:45:17;5.07;;;4.18;;
45618;SDS011;31343;47.520;19.144;2024-01-11T03:47:44;6.30;;;4.88;;
45618;SDS011;31343;47.520;19.144;2024-01-11T03:50:10;4.50;;;3.42;;
45618;SDS011;31343;47.520;19.144;2024-01-11T03:52:36;5.13;;;2.80;;
45618;SDS011;31343;47.520;19.144;2024-01-11T03:55:01;7.03;;;4.68;;
45618;SDS011;31343;47.520;19.144;2024-01-11T03:57:27;6.63;;;3.60;;
45618;SDS011;31343;47.520;19.144;2024-01-11T03:59:53;2.40;;;2.17;;
45618;SDS011;31343;47.520;19.144;2024-01-11T04:02:18;4.55;;;3.85;;
45618;SDS011;31343;47.520;19.144;2024-01-11T04:04:44;2.88;;;2.38;;
45618;SDS011;31343;47.520;19.144;2024-01-11T04:07:10;3.30;;;2.13;;
45618;SDS011;31343;47.520;19.144;2024-01-11T04:09:37;5.47;;;3.83;;
45618;SDS011;31343;47.520;19.144;2024-01-11T04:12:03;3.05;;;2.20;;
45618;SDS011;31343;47.520;19.144;2024-01-11T04:14:30;4.05;;;3.47;;
45618;SDS011;31343;47.520;19.144;2024-01-11T04:16:56;3.63;;;3.33;;
45618;SDS011;31343;47.520;19.144;2024-01-11T04:19:21;3.35;;;3.05;;
45618;SDS011;31343;47.520;19.144;2024-01-11T04:21:47;4.05;;;2.38;;
45618;SDS011;31343;47.520;19.144;2024-01-11T04:24:13;3.90;;;3.25;;
45618;SDS011;31343;47.520;19.144;2024-01-11T04:26:38;9.65;;;5.22;;
45618;SDS011;31343;47.520;19.144;2024-01-11T04:29:04;3.13;;;2.72;;
45618;SDS011;31343;47.520;19.144;2024-01-11T04:31:30;4.78;;;3.10;;
45618;SDS011;31343;47.520;19.144;2024-01-11T04:33:57;5.90;;;2.50;;
45618;SDS011;31343;47.520;19.144;2024-01-11T04:36:22;4.03;;;3.13;;
45618;SDS011;31343;47.520;19.144;2024-01-11T04:38:48;9.18;;;4.20;;
45618;SDS011;31343;47.520;19.144;2024-01-11T04:41:14;3.95;;;3.08;;
45618;SDS011;31343;47.520;19.144;2024-01-11T04:43:41;3.28;;;2.88;;
45618;SDS011;31343;47.520;19.144;2024-01-11T04:46:15;5.35;;;3.33;;
45618;SDS011;31343;47.520;19.144;2024-01-11T04:48:47;3.90;;;3.45;;
45618;SDS011;31343;47.520;19.144;2024-01-11T04:51:14;3.83;;;2.53;;
45618;SDS011;31343;47.520;19.144;2024-01-11T04:53:41;3.83;;;3.53;;
45618;SDS011;31343;47.520;19.144;2024-01-11T04:56:08;9.32;;;3.55;;
45618;SDS011;31343;47.520;19.144;2024-01-11T04:58:35;4.18;;;2.65;;
45618;SDS011;31343;47.520;19.144;2024-01-11T05:01:03;3.75;;;3.17;;
45618;SDS011;31343;47.520;19.144;2024-01-11T05:03:30;3.38;;;3.13;;
45618;SDS011;31343;47.520;19.144;2024-01-11T05:05:56;2.75;;;2.55;;
45618;SDS011;31343;47.520;19.144;2024-01-11T05:08:25;4.55;;;4.25;;
45618;SDS011;31343;47.520;19.144;2024-01-11T05:10:51;3.72;;;3.53;;
45618;SDS011;31343;47.520;19.144;2024-01-11T05:13:17;2.30;;;2.15;;
45618;SDS011;31343;47.520;19.144;2024-01-11T05:15:43;2.92;;;2.72;;
45618;SDS011;31343;47.520;19.144;2024-01-11T05:18:09;6.00;;;1.63;;
45618;SDS011;31343;47.520;19.144;2024-01-11T05:20:35;10.65;;;5.32;;
45618;SDS011;31343;47.520;19.144;2024-01-11T05:23:01;5.05;;;4.05;;
45618;SDS011;31343;47.520;19.144;2024-01-11T05:25:27;3.17;;;2.90;;
45618;SDS011;31343;47.520;19.144;2024-01-11T05:27:53;9.13;;;4.00;;
45618;SDS011;31343;47.520;19.144;2024-01-11T05:30:18;4.20;;;2.97;;
45618;SDS011;31343;47.520;19.144;2024-01-11T05:32:45;2.53;;;2.33;;
45618;SDS011;31343;47.520;19.144;2024-01-11T05:35:11;5.25;;;3.97;;
45618;SDS011;31343;47.520;19.144;2024-01-11T05:37:37;5.10;;;4.60;;
45618;SDS011;31343;47.520;19.144;2024-01-11T05:40:03;3.47;;;3.08;;
45618;SDS011;31343;47.520;19.144;2024-01-11T05:42:29;5.68;;;2.13;;
45618;SDS011;31343;47.520;19.144;2024-01-11T05:44:54;3.30;;;3.10;;
45618;SDS011;31343;47.520;19.144;2024-01-11T05:47:21;8.07;;;2.53;;
45618;SDS011;31343;47.520;19.144;2024-01-11T05:49:46;11.55;;;3.78;;
45618;SDS011;31343;47.520;19.144;2024-01-11T05:52:13;5.55;;;5.10;;
45618;SDS011;31343;47.520;19.144;2024-01-11T05:54:38;4.85;;;4.55;;
45618;SDS011;31343;47.520;19.144;2024-01-11T05:57:04;3.60;;;3.00;;
45618;SDS011;31343;47.520;19.144;2024-01-11T05:59:30;4.30;;;3.97;;
45618;SDS011;31343;47.520;19.144;2024-01-11T06:01:56;3.70;;;3.42;;
45618;SDS011;31343;47.520;19.144;2024-01-11T06:04:25;1.65;;;1.55;;
45618;SDS011;31343;47.520;19.144;2024-01-11T06:06:51;4.03;;;3.65;;
45618;SDS011;31343;47.520;19.144;2024-01-11T06:09:17;6.15;;;5.55;;
45618;SDS011;31343;47.520;19.144;2024-01-11T06:11:42;2.90;;;2.08;;
45618;SDS011;31343;47.520;19.144;2024-01-11T06:14:08;6.95;;;3.08;;
45618;SDS011;31343;47.520;19.144;2024-01-11T06:16:34;1.90;;;1.80;;
45618;SDS011;31343;47.520;19.144;2024-01-11T06:19:00;6.85;;;4.72;;
45618;SDS011;31343;47.520;19.144;2024-01-11T06:21:25;4.78;;;4.38;;
45618;SDS011;31343;47.520;19.144;2024-01-11T06:23:51;4.03;;;3.78;;
45618;SDS011;31343;47.520;19.144;2024-01-11T06:26:17;7.63;;;4.15;;
45618;SDS011;31343;47.520;19.144;2024-01-11T06:28:42;1.85;;;1.33;;
45618;SDS011;31343;47.520;19.144;2024-01-11T06:31:09;3.50;;;3.20;;
45618;SDS011;31343;47.520;19.144;2024-01-11T06:33:35;3.05;;;2.75;;
45618;SDS011;31343;47.520;19.144;2024-01-11T06:36:07;5.13;;;4.30;;
45618;SDS011;31343;47.520;19.144;2024-01-11T06:38:33;3.65;;;3.15;;
45618;SDS011;31343;47.520;19.144;2024-01-11T06:40:59;3.20;;;2.95;;
45618;SDS011;31343;47.520;19.144;2024-01-11T06:43:25;4.63;;;3.20;;
45618;SDS011;31343;47.520;19.144;2024-01-11T06:45:50;2.72;;;2.53;;
45618;SDS011;31343;47.520;19.144;2024-01-11T06:48:18;4.95;;;3.95;;
45618;SDS011;31343;47.520;19.144;2024-01-11T06:50:43;3.45;;;2.47;;
45618;SDS011;31343;47.520;19.144;2024-01-11T06:53:09;2.95;;;2.75;;
45618;SDS011;31343;47.520;19.144;2024-01-11T06:55:35;2.88;;;2.65;;
45618;SDS011;31343;47.520;19.144;2024-01-11T06:58:01;3.80;;;3.42;;
45618;SDS011;31343;47.520;19.144;2024-01-11T07:00:27;6.50;;;3.97;;
45618;SDS011;31343;47.520;19.144;2024-01-11T07:02:53;5.07;;;4.60;;
45618;SDS011;31343;47.520;19.144;2024-01-11T07:05:19;3.88;;;2.97;;
45618;SDS011;31343;47.520;19.144;2024-01-11T07:07:45;17.13;;;4.88;;
45618;SDS011;31343;47.520;19.144;2024-01-11T07:10:11;4.45;;;4.15;;
45618;SDS011;31343;47.520;19.144;2024-01-11T07:12:37;4.10;;;3.70;;
45618;SDS011;31343;47.520;19.144;2024-01-11T07:15:05;5.75;;;3.75;;
45618;SDS011;31343;47.520;19.144;2024-01-11T07:17:33;8.75;;;4.15;;
45618;SDS011;31343;47.520;19.144;2024-01-11T07:19:59;11.88;;;4.57;;
45618;SDS011;31343;47.520;19.144;2024-01-11T07:22:24;11.77;;;5.95;;
45618;SDS011;31343;47.520;19.144;2024-01-11T07:24:50;10.43;;;5.63;;
45618;SDS011;31343;47.520;19.144;2024-01-11T07:27:16;8.68;;;5.47;;
45618;SDS011;31343;47.520;19.144;2024-01-11T07:29:42;6.35;;;4.63;;
45618;SDS011;31343;47.520;19.144;2024-01-11T07:32:08;7.10;;;3.78;;
45618;SDS011;31343;47.520;19.144;2024-01-11T07:34:34;9.05;;;5.43;;
45618;SDS011;31343;47.520;19.144;2024-01-11T07:36:59;10.25;;;5.18;;
45618;SDS011;31343;47.520;19.144;2024-01-11T07:39:25;7.95;;;4.35;;
45618;SDS011;31343;47.520;19.144;2024-01-11T07:41:51;5.72;;;5.13;;
45618;SDS011;31343;47.520;19.144;2024-01-11T07:44:17;8.98;;;6.18;;
45618;SDS011;31343;47.520;19.144;2024-01-11T07:46:43;12.32;;;5.35;;
45618;SDS011;31343;47.520;19.144;2024-01-11T07:49:09;10.25;;;4.45;;
45618;SDS011;31343;47.520;19.144;2024-01-11T07:51:35;7.90;;;6.05;;
45618;SDS011;31343;47.520;19.144;2024-01-11T07:54:01;11.88;;;7.68;;
45618;SDS011;31343;47.520;19.144;2024-01-11T07:56:27;10.73;;;6.75;;
45618;SDS011;31343;47.520;19.144;2024-01-11T07:58:54;7.45;;;3.33;;
45618;SDS011;31343;47.520;19.144;2024-01-11T08:01:20;7.20;;;4.20;;
45618;SDS011;31343;47.520;19.144;2024-01-11T08:03:46;5.40;;;3.67;;
45618;SDS011;31343;47.520;19.144;2024-01-11T08:06:12;10.82;;;3.50;;
45618;SDS011;31343;47.520;19.144;2024-01-11T08:08:38;5.53;;;4.68;;
45618;SDS011;31343;47.520;19.144;2024-01-11T08:11:04;4.35;;;2.75;;
45618;SDS011;31343;47.520;19.144;2024-01-11T08:13:32;3.80;;;2.45;;
45618;SDS011;31343;47.520;19.144;2024-01-11T08:15:59;7.85;;;4.03;;
45618;SDS011;31343;47.520;19.144;2024-01-11T08:18:30;8.25;;;3.25;;
45618;SDS011;31343;47.520;19.144;2024-01-11T08:20:56;4.15;;;2.97;;
45618;SDS011;31343;47.520;19.144;2024-01-11T08:23:21;13.10;;;4.50;;
45618;SDS011;31343;47.520;19.144;2024-01-11T08:25:47;4.28;;;3.20;;
45618;SDS011;31343;47.520;19.144;2024-01-11T08:28:13;6.38;;;2.83;;
45618;SDS011;31343;47.520;19.144;2024-01-11T08:30:38;5.00;;;3.78;;
45618;SDS011;31343;47.520;19.144;2024-01-11T08:33:04;7.93;;;3.15;;
45618;SDS011;31343;47.520;19.144;2024-01-11T08:35:30;7.80;;;2.85;;
45618;SDS011;31343;47.520;19.144;2024-01-11T08:37:57;8.13;;;3.70;;
45618;SDS011;31343;47.520;19.144;2024-01-11T08:40:23;4.03;;;2.70;;
45618;SDS011;31343;47.520;19.144;2024-01-11T08:42:48;7.35;;;3.35;;
45618;SDS011;31343;47.520;19.144;2024-01-11T08:45:14;4.75;;;3.25;;
45618;SDS011;31343;47.520;19.144;2024-01-11T08:47:43;4.20;;;2.42;;
45618;SDS011;31343;47.520;19.144;2024-01-11T08:50:13;6.15;;;2.78;;
45618;SDS011;31343;47.520;19.144;2024-01-11T08:52:40;3.75;;;2.65;;
45618;SDS011;31343;47.520;19.144;2024-01-11T08:55:06;5.15;;;2.72;;
45618;SDS011;31343;47.520;19.144;2024-01-11T08:57:32;5.65;;;2.70;;
45618;SDS011;31343;47.520;19.144;2024-01-11T09:00:00;4.32;;;2.25;;
45618;SDS011;31343;47.520;19.144;2024-01-11T09:02:31;3.92;;;2.25;;
45618;SDS011;31343;47.520;19.144;2024-01-11T09:04:56;5.30;;;2.65;;
45618;SDS011;31343;47.520;19.144;2024-01-11T09:07:22;4.30;;;2.53;;
45618;SDS011;31343;47.520;19.144;2024-01-11T09:09:48;7.60;;;3.20;;
45618;SDS011;31343;47.520;19.144;2024-01-11T09:12:14;4.85;;;2.85;;
45618;SDS011;31343;47.520;19.144;2024-01-11T09:14:39;7.78;;;2.80;;
45618;SDS011;31343;47.520;19.144;2024-01-11T09:17:05;3.53;;;2.45;;
45618;SDS011;31343;47.520;19.144;2024-01-11T09:19:32;7.13;;;3.50;;
45618;SDS011;31343;47.520;19.144;2024-01-11T09:21:59;6.05;;;2.92;;
45618;SDS011;31343;47.520;19.144;2024-01-11T09:24:24;5.65;;;1.98;;
45618;SDS011;31343;47.520;19.144;2024-01-11T09:26:50;5.30;;;2.17;;
45618;SDS011;31343;47.520;19.144;2024-01-11T09:29:16;5.60;;;2.85;;
45618;SDS011;31343;47.520;19.144;2024-01-11T09:31:42;4.28;;;2.63;;
45618;SDS011;31343;47.520;19.144;2024-01-11T09:34:07;4.03;;;2.38;;
45618;SDS011;31343;47.520;19.144;2024-01-11T09:36:33;3.78;;;2.50;;
45618;SDS011;31343;47.520;19.144;2024-01-11T09:38:59;3.50;;;1.85;;
45618;SDS011;31343;47.520;19.144;2024-01-11T09:41:25;2.33;;;1.85;;
45618;SDS011;31343;47.520;19.144;2024-01-11T09:43:52;3.22;;;2.55;;
45618;SDS011;31343;47.520;19.144;2024-01-11T09:46:22;2.10;;;1.60;;
45618;SDS011;31343;47.520;19.144;2024-01-11T09:48:49;2.67;;;1.30;;
45618;SDS011;31343;47.520;19.144;2024-01-11T09:51:18;1.95;;;1.25;;
45618;SDS011;31343;47.520;19.144;2024-01-11T09:53:43;3.45;;;2.38;;
45618;SDS011;31343;47.520;19.144;2024-01-11T09:56:09;2.17;;;1.67;;
45618;SDS011;31343;47.520;19.144;2024-01-11T09:58:35;2.00;;;1.73;;
45618;SDS011;31343;47.520;19.144;2024-01-11T10:01:02;3.45;;;1.90;;
45618;SDS011;31343;47.520;19.144;2024-01-11T10:03:28;2.20;;;1.50;;
45618;SDS011;31343;47.520;19.144;2024-01-11T10:05:54;2.58;;;1.45;;
45618;SDS011;31343;47.520;19.144;2024-01-11T10:08:23;3.38;;;1.50;;
45618;SDS011;31343;47.520;19.144;2024-01-11T10:10:49;3.28;;;1.65;;
45618;SDS011;31343;47.520;19.144;2024-01-11T10:13:15;2.35;;;1.60;;
45618;SDS011;31343;47.520;19.144;2024-01-11T10:15:41;1.85;;;1.20;;
45618;SDS011;31343;47.520;19.144;2024-01-11T10:18:08;3.60;;;2.33;;
45618;SDS011;31343;47.520;19.144;2024-01-11T10:20:34;3.92;;;1.92;;
45618;SDS011;31343;47.520;19.144;2024-01-11T10:22:59;3.05;;;1.63;;
45618;SDS011;31343;47.520;19.144;2024-01-11T10:25:26;1.60;;;1.15;;
45618;SDS011;31343;47.520;19.144;2024-01-11T10:27:52;1.98;;;1.25;;
45618;SDS011;31343;47.520;19.144;2024-01-11T10:30:17;3.38;;;1.60;;
45618;SDS011;31343;47.520;19.144;2024-01-11T10:32:45;3.65;;;1.67;;
45618;SDS011;31343;47.520;19.144;2024-01-11T10:35:12;5.28;;;2.08;;
45618;SDS011;31343;47.520;19.144;2024-01-11T10:37:38;3.80;;;1.98;;
45618;SDS011;31343;47.520;19.144;2024-01-11T10:40:05;3.15;;;2.30;;
45618;SDS011;31343;47.520;19.144;2024-01-11T10:42:50;9.52;;;1.77;;
45618;SDS011;31343;47.520;19.144;2024-01-11T10:45:18;4.78;;;2.53;;
45618;SDS011;31343;47.520;19.144;2024-01-11T10:50:22;3.97;;;2.10;;
45618;SDS011;31343;47.520;19.144;2024-01-11T10:53:08;3.65;;;2.25;;
45618;SDS011;31343;47.520;19.144;2024-01-11T10:55:50;6.72;;;2.80;;
45618;SDS011;31343;47.520;19.144;2024-01-11T10:58:16;5.93;;;2.15;;
45618;SDS011;31343;47.520;19.144;2024-01-11T11:00:44;3.65;;;1.90;;
45618;SDS011;31343;47.520;19.144;2024-01-11T11:03:11;3.13;;;2.60;;
45618;SDS011;31343;47.520;19.144;2024-01-11T11:05:39;7.15;;;2.88;;
45618;SDS011;31343;47.520;19.144;2024-01-11T11:08:06;4.90;;;2.20;;
45618;SDS011;31343;47.520;19.144;2024-01-11T11:10:33;5.32;;;1.90;;
45618;SDS011;31343;47.520;19.144;2024-01-11T11:13:00;3.75;;;2.38;;
45618;SDS011;31343;47.520;19.144;2024-01-11T11:15:28;3.95;;;2.97;;
45618;SDS011;31343;47.520;19.144;2024-01-11T11:17:54;3.47;;;2.53;;
45618;SDS011;31343;47.520;19.144;2024-01-11T11:20:21;4.68;;;3.20;;
45618;SDS011;31343;47.520;19.144;2024-01-11T11:23:03;5.13;;;2.92;;
45618;SDS011;31343;47.520;19.144;2024-01-11T11:25:30;3.92;;;2.97;;
45618;SDS011;31343;47.520;19.144;2024-01-11T11:27:55;4.03;;;2.72;;
45618;SDS011;31343;47.520;19.144;2024-01-11T11:30:22;6.57;;;3.38;;
45618;SDS011;31343;47.520;19.144;2024-01-11T11:32:48;7.60;;;4.25;;
45618;SDS011;31343;47.520;19.144;2024-01-11T11:35:14;5.90;;;2.92;;
45618;SDS011;31343;47.520;19.144;2024-01-11T11:37:39;7.82;;;3.80;;
45618;SDS011;31343;47.520;19.144;2024-01-11T11:40:06;6.25;;;3.80;;
45618;SDS011;31343;47.520;19.144;2024-01-11T11:42:35;8.05;;;5.03;;
45618;SDS011;31343;47.520;19.144;2024-01-11T11:45:01;6.38;;;3.55;;
45618;SDS011;31343;47.520;19.144;2024-01-11T11:47:34;7.25;;;4.57;;
45618;SDS011;31343;47.520;19.144;2024-01-11T11:52:34;8.02;;;3.55;;
45618;SDS011;31343;47.520;19.144;2024-01-11T11:55:07;6.88;;;4.53;;
45618;SDS011;31343;47.520;19.144;2024-01-11T11:57:34;6.60;;;3.83;;
45618;SDS011;31343;47.520;19.144;2024-01-11T12:00:01;9.43;;;4.75;;
45618;SDS011;31343;47.520;19.144;2024-01-11T12:02:30;6.20;;;3.38;;
45618;SDS011;31343;47.520;19.144;2024-01-11T12:04:56;6.53;;;4.97;;
45618;SDS011;31343;47.520;19.144;2024-01-11T12:07:23;8.23;;;3.55;;
45618;SDS011;31343;47.520;19.144;2024-01-11T12:09:50;8.45;;;4.07;;
45618;SDS011;31343;47.520;19.144;2024-01-11T12:12:17;9.90;;;4.40;;
45618;SDS011;31343;47.520;19.144;2024-01-11T12:14:45;9.48;;;5.50;;
45618;SDS011;31343;47.520;19.144;2024-01-11T12:17:12;6.82;;;4.53;;
45618;SDS011;31343;47.520;19.144;2024-01-11T12:19:38;9.82;;;3.78;;
45618;SDS011;31343;47.520;19.144;2024-01-11T12:22:03;6.00;;;3.90;;
45618;SDS011;31343;47.520;19.144;2024-01-11T12:24:29;8.18;;;4.65;;
45618;SDS011;31343;47.520;19.144;2024-01-11T12:26:56;7.65;;;4.07;;
45618;SDS011;31343;47.520;19.144;2024-01-11T12:29:24;8.85;;;3.38;;
45618;SDS011;31343;47.520;19.144;2024-01-11T12:31:50;10.85;;;5.55;;
45618;SDS011;31343;47.520;19.144;2024-01-11T12:34:17;10.57;;;4.40;;
45618;SDS011;31343;47.520;19.144;2024-01-11T12:36:43;8.20;;;4.30;;
45618;SDS011;31343;47.520;19.144;2024-01-11T12:39:10;6.43;;;3.92;;
45618;SDS011;31343;47.520;19.144;2024-01-11T12:41:38;7.25;;;4.45;;
45618;SDS011;31343;47.520;19.144;2024-01-11T12:44:04;8.25;;;4.30;;
45618;SDS011;31343;47.520;19.144;2024-01-11T12:46:31;6.68;;;5.47;;
45618;SDS011;31343;47.520;19.144;2024-01-11T12:48:56;6.65;;;5.20;;
45618;SDS011;31343;47.520;19.144;2024-01-11T12:51:23;6.10;;;4.57;;
45618;SDS011;31343;47.520;19.144;2024-01-11T12:53:51;6.75;;;5.13;;
45618;SDS011;31343;47.520;19.144;2024-01-11T12:56:18;6.57;;;3.67;;
45618;SDS011;31343;47.520;19.144;2024-01-11T12:58:46;7.32;;;4.57;;
45618;SDS011;31343;47.520;19.144;2024-01-11T13:01:12;9.00;;;5.10;;
45618;SDS011;31343;47.520;19.144;2024-01-11T13:03:39;12.05;;;4.88;;
45618;SDS011;31343;47.520;19.144;2024-01-11T13:06:08;8.10;;;4.72;;
45618;SDS011;31343;47.520;19.144;2024-01-11T13:08:36;6.55;;;3.97;;
45618;SDS011;31343;47.520;19.144;2024-01-11T13:11:05;6.15;;;2.85;;
45618;SDS011;31343;47.520;19.144;2024-01-11T13:13:32;6.43;;;3.17;;
45618;SDS011;31343;47.520;19.144;2024-01-11T13:16:00;5.80;;;3.75;;
45618;SDS011;31343;47.520;19.144;2024-01-11T13:18:31;8.23;;;4.38;;
45618;SDS011;31343;47.520;19.144;2024-01-11T13:20:57;5.55;;;4.22;;
45618;SDS011;31343;47.520;19.144;2024-01-11T13:23:23;6.72;;;3.38;;
45618;SDS011;31343;47.520;19.144;2024-01-11T13:25:50;7.30;;;3.80;;
45618;SDS011;31343;47.520;19.144;2024-01-11T13:28:15;5.25;;;4.60;;
45618;SDS011;31343;47.520;19.144;2024-01-11T13:30:43;6.85;;;3.47;;
45618;SDS011;31343;47.520;19.144;2024-01-11T13:33:10;4.07;;;3.17;;
45618;SDS011;31343;47.520;19.144;2024-01-11T13:35:37;9.15;;;3.55;;
45618;SDS011;31343;47.520;19.144;2024-01-11T13:38:03;6.80;;;2.72;;
45618;SDS011;31343;47.520;19.144;2024-01-11T13:40:29;4.30;;;3.40;;
45618;SDS011;31343;47.520;19.144;2024-01-11T13:42:56;6.13;;;2.60;;
45618;SDS011;31343;47.520;19.144;2024-01-11T13:45:22;5.55;;;3.58;;
45618;SDS011;31343;47.520;19.144;2024-01-11T13:47:48;6.68;;;2.70;;
45618;SDS011;31343;47.520;19.144;2024-01-11T13:50:14;3.80;;;2.88;;
45618;SDS011;31343;47.520;19.144;2024-01-11T13:52:41;4.65;;;2.60;;
45618;SDS011;31343;47.520;19.144;2024-01-11T13:55:07;5.97;;;3.28;;
45618;SDS011;31343;47.520;19.144;2024-01-11T13:57:35;5.22;;;2.85;;
45618;SDS011;31343;47.520;19.144;2024-01-11T14:00:02;3.90;;;2.42;;
45618;SDS011;31343;47.520;19.144;2024-01-11T14:02:31;4.80;;;3.83;;
45618;SDS011;31343;47.520;19.144;2024-01-11T14:04:58;4.85;;;2.72;;
45618;SDS011;31343;47.520;19.144;2024-01-11T14:07:24;5.68;;;3.33;;
45618;SDS011;31343;47.520;19.144;2024-01-11T14:09:53;6.30;;;3.05;;
45618;SDS011;31343;47.520;19.144;2024-01-11T14:12:19;5.70;;;3.25;;
45618;SDS011;31343;47.520;19.144;2024-01-11T14:14:44;6.38;;;3.38;;
45618;SDS011;31343;47.520;19.144;2024-01-11T14:17:10;3.88;;;2.53;;
45618;SDS011;31343;47.520;19.144;2024-01-11T14:19:36;4.03;;;2.30;;
45618;SDS011;31343;47.520;19.144;2024-01-11T14:22:01;4.63;;;2.80;;
45618;SDS011;31343;47.520;19.144;2024-01-11T14:24:27;5.90;;;3.47;;
45618;SDS011;31343;47.520;19.144;2024-01-11T14:26:53;5.88;;;3.47;;
45618;SDS011;31343;47.520;19.144;2024-01-11T14:29:19;5.07;;;2.40;;
45618;SDS011;31343;47.520;19.144;2024-01-11T14:31:45;4.35;;;2.65;;
45618;SDS011;31343;47.520;19.144;2024-01-11T14:34:10;3.25;;;2.40;;
45618;SDS011;31343;47.520;19.144;2024-01-11T14:36:36;2.95;;;2.33;;